sensor_id;sensor_type;location;lat;lon;timestamp;pressure;altitude;pressure_sealevel;temperature;humidity
73171;BME280;61381;50.118;19.962;2023-01-30T00:02:27;98606.28;;;-3.74;100.00
73171;BME280;61381;50.118;19.962;2023-01-30T00:07:28;98598.09;;;-3.65;100.00
73171;BME280;61381;50.118;19.962;2023-01-30T00:12:29;98580.41;;;-3.63;100.00
73171;BME280;61381;50.118;19.962;2023-01-30T00:17:31;98572.97;;;-3.59;100.00
73171;BME280;61381;50.118;19.962;2023-01-30T00:22:32;98564.19;;;-3.80;100.00
73171;BME280;61381;50.118;19.962;2023-01-30T00:27:34;98547.06;;;-3.76;100.00
73171;BME280;61381;50.118;19.962;2023-01-30T00:32:36;98531.44;;;-3.69;100.00
73171;BME280;61381;50.118;19.962;2023-01-30T00:37:37;98518.75;;;-3.65;100.00
73171;BME280;61381;50.118;19.962;2023-01-30T00:42:38;98508.53;;;-3.60;100.00
73171;BME280;61381;50.118;19.962;2023-01-30T00:47:41;98487.13;;;-3.70;100.00
73171;BME280;61381;50.118;19.962;2023-01-30T00:52:42;98475.38;;;-3.81;100.00
73171;BME280;61381;50.118;19.962;2023-01-30T00:57:43;98476.16;;;-3.87;100.00
73171;BME280;61381;50.118;19.962;2023-01-30T01:02:46;98462.25;;;-3.88;100.00
73171;BME280;61381;50.118;19.962;2023-01-30T01:07:47;98442.34;;;-3.89;100.00
73171;BME280;61381;50.118;19.962;2023-01-30T01:12:49;98444.00;;;-3.81;100.00
73171;BME280;61381;50.118;19.962;2023-01-30T01:17:52;98429.47;;;-3.84;100.00
73171;BME280;61381;50.118;19.962;2023-01-30T01:22:54;98425.00;;;-3.90;100.00
73171;BME280;61381;50.118;19.962;2023-01-30T01:27:56;98407.00;;;-3.71;100.00
73171;BME280;61381;50.118;19.962;2023-01-30T01:32:58;98396.88;;;-3.81;100.00
73171;BME280;61381;50.118;19.962;2023-01-30T01:37:59;98386.56;;;-3.89;100.00
73171;BME280;61381;50.118;19.962;2023-01-30T01:43:01;98359.53;;;-4.03;100.00
73171;BME280;61381;50.118;19.962;2023-01-30T01:48:08;98361.94;;;-4.37;100.00
73171;BME280;61381;50.118;19.962;2023-01-30T01:53:14;98357.28;;;-4.41;100.00
73171;BME280;61381;50.118;19.962;2023-01-30T01:58:21;98339.31;;;-4.51;100.00
73171;BME280;61381;50.118;19.962;2023-01-30T02:03:25;98334.78;;;-4.64;100.00
73171;BME280;61381;50.118;19.962;2023-01-30T02:08:31;98317.59;;;-4.80;100.00
73171;BME280;61381;50.118;19.962;2023-01-30T02:13:33;98313.19;;;-4.79;100.00
73171;BME280;61381;50.118;19.962;2023-01-30T02:18:37;98303.97;;;-4.75;100.00
73171;BME280;61381;50.118;19.962;2023-01-30T02:29:50;98296.13;;;-4.75;100.00
73171;BME280;61381;50.118;19.962;2023-01-30T02:35:03;98290.91;;;-4.75;100.00
73171;BME280;61381;50.118;19.962;2023-01-30T02:40:20;98280.81;;;-4.85;100.00
73171;BME280;61381;50.118;19.962;2023-01-30T02:45:31;98263.91;;;-4.82;100.00
73171;BME280;61381;50.118;19.962;2023-01-30T02:50:39;98246.16;;;-4.94;100.00
73171;BME280;61381;50.118;19.962;2023-01-30T02:55:42;98251.00;;;-4.91;100.00
73171;BME280;61381;50.118;19.962;2023-01-30T03:00:59;98244.47;;;-4.73;100.00
73171;BME280;61381;50.118;19.962;2023-01-30T03:06:32;98233.06;;;-4.66;100.00
73171;BME280;61381;50.118;19.962;2023-01-30T03:11:44;98220.19;;;-4.67;100.00
73171;BME280;61381;50.118;19.962;2023-01-30T03:16:48;98224.03;;;-4.63;100.00
73171;BME280;61381;50.118;19.962;2023-01-30T03:21:53;98212.16;;;-4.66;100.00
73171;BME280;61381;50.118;19.962;2023-01-30T03:26:57;98199.34;;;-4.60;100.00
73171;BME280;61381;50.118;19.962;2023-01-30T03:32:00;98198.00;;;-4.50;100.00
73171;BME280;61381;50.118;19.962;2023-01-30T03:37:03;98192.56;;;-4.48;100.00
73171;BME280;61381;50.118;19.962;2023-01-30T03:42:04;98184.91;;;-4.50;100.00
73171;BME280;61381;50.118;19.962;2023-01-30T03:47:05;98178.72;;;-4.42;100.00
73171;BME280;61381;50.118;19.962;2023-01-30T03:52:08;98170.50;;;-4.32;100.00
73171;BME280;61381;50.118;19.962;2023-01-30T03:57:09;98160.69;;;-4.23;100.00
73171;BME280;61381;50.118;19.962;2023-01-30T04:02:10;98152.84;;;-4.17;100.00
73171;BME280;61381;50.118;19.962;2023-01-30T04:07:12;98144.59;;;-4.20;100.00
73171;BME280;61381;50.118;19.962;2023-01-30T04:12:13;98143.56;;;-4.26;100.00
73171;BME280;61381;50.118;19.962;2023-01-30T04:17:15;98135.31;;;-4.36;100.00
73171;BME280;61381;50.118;19.962;2023-01-30T04:22:17;98129.88;;;-4.35;100.00
73171;BME280;61381;50.118;19.962;2023-01-30T04:27:18;98131.47;;;-4.47;100.00
73171;BME280;61381;50.118;19.962;2023-01-30T04:32:19;98123.41;;;-4.45;100.00
73171;BME280;61381;50.118;19.962;2023-01-30T04:37:22;98107.56;;;-4.31;100.00
73171;BME280;61381;50.118;19.962;2023-01-30T04:42:23;98106.16;;;-4.20;100.00
73171;BME280;61381;50.118;19.962;2023-01-30T04:47:24;98098.31;;;-4.20;100.00
73171;BME280;61381;50.118;19.962;2023-01-30T04:52:27;98077.22;;;-4.12;100.00
73171;BME280;61381;50.118;19.962;2023-01-30T04:57:28;98092.13;;;-4.05;100.00
73171;BME280;61381;50.118;19.962;2023-01-30T05:02:29;98094.75;;;-3.92;100.00
73171;BME280;61381;50.118;19.962;2023-01-30T05:07:32;98091.50;;;-3.94;100.00
73171;BME280;61381;50.118;19.962;2023-01-30T05:12:33;98082.66;;;-3.86;100.00
73171;BME280;61381;50.118;19.962;2023-01-30T05:17:35;98091.75;;;-3.89;100.00
73171;BME280;61381;50.118;19.962;2023-01-30T05:22:37;98075.81;;;-3.74;100.00
73171;BME280;61381;50.118;19.962;2023-01-30T05:27:39;98063.34;;;-3.72;100.00
73171;BME280;61381;50.118;19.962;2023-01-30T05:32:40;98043.59;;;-3.61;100.00
73171;BME280;61381;50.118;19.962;2023-01-30T05:37:42;98036.53;;;-3.54;100.00
73171;BME280;61381;50.118;19.962;2023-01-30T05:42:43;98032.53;;;-3.56;100.00
73171;BME280;61381;50.118;19.962;2023-01-30T05:47:49;98036.16;;;-3.58;100.00
73171;BME280;61381;50.118;19.962;2023-01-30T05:52:52;98030.28;;;-3.46;100.00
73171;BME280;61381;50.118;19.962;2023-01-30T05:57:53;98019.00;;;-3.47;100.00
73171;BME280;61381;50.118;19.962;2023-01-30T06:02:54;98010.72;;;-3.37;100.00
73171;BME280;61381;50.118;19.962;2023-01-30T06:07:56;98005.72;;;-3.45;100.00
73171;BME280;61381;50.118;19.962;2023-01-30T06:12:57;98004.28;;;-3.41;100.00
73171;BME280;61381;50.118;19.962;2023-01-30T06:17:58;98003.25;;;-3.33;100.00
73171;BME280;61381;50.118;19.962;2023-01-30T06:23:01;97992.59;;;-3.38;100.00
73171;BME280;61381;50.118;19.962;2023-01-30T06:28:02;97973.25;;;-3.37;100.00
73171;BME280;61381;50.118;19.962;2023-01-30T06:33:04;97957.75;;;-3.39;100.00
73171;BME280;61381;50.118;19.962;2023-01-30T06:38:07;97960.13;;;-3.31;100.00
73171;BME280;61381;50.118;19.962;2023-01-30T06:43:08;97958.13;;;-3.29;100.00
73171;BME280;61381;50.118;19.962;2023-01-30T06:48:09;97961.94;;;-3.31;100.00
73171;BME280;61381;50.118;19.962;2023-01-30T06:53:12;97935.97;;;-3.26;100.00
73171;BME280;61381;50.118;19.962;2023-01-30T06:58:13;97926.66;;;-3.15;100.00
73171;BME280;61381;50.118;19.962;2023-01-30T07:03:16;97925.63;;;-3.14;100.00
73171;BME280;61381;50.118;19.962;2023-01-30T07:08:19;97890.09;;;-3.03;100.00
73171;BME280;61381;50.118;19.962;2023-01-30T07:13:20;97906.63;;;-3.03;99.21
73171;BME280;61381;50.118;19.962;2023-01-30T07:18:21;97901.88;;;-2.88;98.18
73171;BME280;61381;50.118;19.962;2023-01-30T07:23:23;97895.19;;;-2.83;98.46
73171;BME280;61381;50.118;19.962;2023-01-30T07:28:25;97892.25;;;-2.69;99.33
73171;BME280;61381;50.118;19.962;2023-01-30T07:33:26;97894.88;;;-2.69;97.71
73171;BME280;61381;50.118;19.962;2023-01-30T07:38:28;97898.06;;;-2.60;98.68
73171;BME280;61381;50.118;19.962;2023-01-30T07:43:29;97902.44;;;-2.54;98.80
73171;BME280;61381;50.118;19.962;2023-01-30T07:48:30;97907.53;;;-2.34;100.00
73171;BME280;61381;50.118;19.962;2023-01-30T07:53:33;97885.97;;;-2.36;97.59
73171;BME280;61381;50.118;19.962;2023-01-30T07:58:34;97883.91;;;-2.34;98.28
73171;BME280;61381;50.118;19.962;2023-01-30T08:03:35;97885.81;;;-2.22;97.77
73171;BME280;61381;50.118;19.962;2023-01-30T08:08:38;97875.19;;;-2.09;98.71
73171;BME280;61381;50.118;19.962;2023-01-30T08:13:39;97881.06;;;-1.88;98.97
73171;BME280;61381;50.118;19.962;2023-01-30T08:18:40;97859.41;;;-1.84;96.19
73171;BME280;61381;50.118;19.962;2023-01-30T08:23:43;97861.69;;;-1.57;94.15
73171;BME280;61381;50.118;19.962;2023-01-30T08:28:44;97867.41;;;-1.30;94.31
73171;BME280;61381;50.118;19.962;2023-01-30T08:33:46;97845.50;;;-1.23;92.37
73171;BME280;61381;50.118;19.962;2023-01-30T08:38:49;97832.41;;;-1.00;93.00
73171;BME280;61381;50.118;19.962;2023-01-30T08:43:50;97822.72;;;-0.87;92.30
73171;BME280;61381;50.118;19.962;2023-01-30T08:48:51;97832.56;;;-0.71;91.49
73171;BME280;61381;50.118;19.962;2023-01-30T08:53:54;97817.72;;;-0.53;91.23
73171;BME280;61381;50.118;19.962;2023-01-30T08:58:55;97818.50;;;-0.29;90.41
73171;BME280;61381;50.118;19.962;2023-01-30T09:03:56;97791.16;;;-0.16;91.06
73171;BME280;61381;50.118;19.962;2023-01-30T09:08:59;97798.44;;;-0.07;89.66
73171;BME280;61381;50.118;19.962;2023-01-30T09:14:00;97792.03;;;0.01;90.47
73171;BME280;61381;50.118;19.962;2023-01-30T09:19:01;97775.63;;;0.11;89.50
73171;BME280;61381;50.118;19.962;2023-01-30T09:24:04;97787.50;;;0.25;90.03
73171;BME280;61381;50.118;19.962;2023-01-30T09:29:05;97773.94;;;0.33;92.58
73171;BME280;61381;50.118;19.962;2023-01-30T09:34:06;97761.66;;;0.10;93.55
73171;BME280;61381;50.118;19.962;2023-01-30T09:39:09;97760.69;;;-0.12;96.81
73171;BME280;61381;50.118;19.962;2023-01-30T09:44:25;97743.09;;;-0.24;98.50
73171;BME280;61381;50.118;19.962;2023-01-30T09:49:41;97736.69;;;-0.28;99.87
73171;BME280;61381;50.118;19.962;2023-01-30T09:54:47;97716.69;;;-0.29;100.00
73171;BME280;61381;50.118;19.962;2023-01-30T09:59:55;97713.38;;;-0.24;100.00
73171;BME280;61381;50.118;19.962;2023-01-30T10:04:57;97711.91;;;-0.03;100.00
73171;BME280;61381;50.118;19.962;2023-01-30T10:10:06;97697.00;;;0.03;100.00
73171;BME280;61381;50.118;19.962;2023-01-30T10:15:33;97669.28;;;0.29;100.00
73171;BME280;61381;50.118;19.962;2023-01-30T10:20:44;97656.28;;;0.39;100.00
73171;BME280;61381;50.118;19.962;2023-01-30T10:25:53;97654.53;;;0.45;100.00
73171;BME280;61381;50.118;19.962;2023-01-30T10:31:03;97624.16;;;0.76;100.00
73171;BME280;61381;50.118;19.962;2023-01-30T10:36:08;97607.91;;;0.45;100.00
73171;BME280;61381;50.118;19.962;2023-01-30T10:41:20;97605.34;;;0.33;100.00
73171;BME280;61381;50.118;19.962;2023-01-30T10:46:34;97588.75;;;0.33;100.00
73171;BME280;61381;50.118;19.962;2023-01-30T10:51:45;97605.59;;;0.15;100.00
73171;BME280;61381;50.118;19.962;2023-01-30T10:56:55;97609.66;;;0.06;100.00
73171;BME280;61381;50.118;19.962;2023-01-30T11:02:09;97607.91;;;0.11;100.00
73171;BME280;61381;50.118;19.962;2023-01-30T11:07:15;97597.19;;;0.01;100.00
73171;BME280;61381;50.118;19.962;2023-01-30T11:12:18;97587.19;;;-0.14;100.00
73171;BME280;61381;50.118;19.962;2023-01-30T11:17:20;97571.56;;;-0.21;100.00
73171;BME280;61381;50.118;19.962;2023-01-30T11:22:30;97561.78;;;-0.08;100.00
73171;BME280;61381;50.118;19.962;2023-01-30T11:27:34;97572.88;;;0.11;100.00
73171;BME280;61381;50.118;19.962;2023-01-30T11:32:35;97555.41;;;0.05;100.00
73171;BME280;61381;50.118;19.962;2023-01-30T11:37:38;97541.34;;;0.33;100.00
73171;BME280;61381;50.118;19.962;2023-01-30T11:42:42;97539.50;;;0.16;100.00
73171;BME280;61381;50.118;19.962;2023-01-30T11:47:48;97532.00;;;0.25;100.00
73171;BME280;61381;50.118;19.962;2023-01-30T11:52:50;97521.31;;;0.15;100.00
73171;BME280;61381;50.118;19.962;2023-01-30T11:57:55;97509.28;;;-0.15;100.00
73171;BME280;61381;50.118;19.962;2023-01-30T12:03:04;97510.56;;;-0.17;100.00
73171;BME280;61381;50.118;19.962;2023-01-30T12:08:12;97505.47;;;-0.24;100.00
73171;BME280;61381;50.118;19.962;2023-01-30T12:13:20;97499.72;;;-0.21;100.00
73171;BME280;61381;50.118;19.962;2023-01-30T12:18:29;97499.88;;;-0.11;100.00
73171;BME280;61381;50.118;19.962;2023-01-30T12:23:37;97486.16;;;-0.13;100.00
73171;BME280;61381;50.118;19.962;2023-01-30T12:28:47;97483.28;;;-0.11;100.00
73171;BME280;61381;50.118;19.962;2023-01-30T12:33:51;97487.28;;;0.08;100.00
73171;BME280;61381;50.118;19.962;2023-01-30T12:39:12;97483.50;;;0.04;100.00
73171;BME280;61381;50.118;19.962;2023-01-30T12:44:24;97470.66;;;-0.09;100.00
73171;BME280;61381;50.118;19.962;2023-01-30T12:49:46;97472.09;;;-0.02;100.00
73171;BME280;61381;50.118;19.962;2023-01-30T12:54:56;97478.41;;;0.14;100.00
73171;BME280;61381;50.118;19.962;2023-01-30T13:00:26;97462.75;;;0.25;100.00
73171;BME280;61381;50.118;19.962;2023-01-30T13:05:34;97459.97;;;0.14;100.00
73171;BME280;61381;50.118;19.962;2023-01-30T13:10:43;97466.38;;;-0.15;100.00
73171;BME280;61381;50.118;19.962;2023-01-30T13:15:55;97458.16;;;-0.19;100.00
73171;BME280;61381;50.118;19.962;2023-01-30T13:21:05;97462.41;;;-0.18;100.00
73171;BME280;61381;50.118;19.962;2023-01-30T13:26:09;97456.50;;;-0.25;100.00
73171;BME280;61381;50.118;19.962;2023-01-30T13:31:15;97451.75;;;-0.06;100.00
73171;BME280;61381;50.118;19.962;2023-01-30T13:36:19;97434.25;;;-0.34;100.00
73171;BME280;61381;50.118;19.962;2023-01-30T13:41:23;97435.84;;;-0.33;100.00
73171;BME280;61381;50.118;19.962;2023-01-30T13:46:27;97425.22;;;-0.39;100.00
73171;BME280;61381;50.118;19.962;2023-01-30T13:51:38;97441.19;;;-0.28;100.00
73171;BME280;61381;50.118;19.962;2023-01-30T13:56:45;97438.56;;;-0.28;100.00
73171;BME280;61381;50.118;19.962;2023-01-30T14:02:17;97433.06;;;-0.27;100.00
73171;BME280;61381;50.118;19.962;2023-01-30T14:07:24;97444.38;;;-0.26;100.00
73171;BME280;61381;50.118;19.962;2023-01-30T14:12:32;97433.00;;;-0.32;100.00
73171;BME280;61381;50.118;19.962;2023-01-30T14:17:35;97432.41;;;-0.34;100.00
73171;BME280;61381;50.118;19.962;2023-01-30T14:22:41;97423.97;;;-0.36;100.00
73171;BME280;61381;50.118;19.962;2023-01-30T14:27:50;97429.78;;;-0.34;100.00
73171;BME280;61381;50.118;19.962;2023-01-30T14:32:55;97416.72;;;-0.29;100.00
73171;BME280;61381;50.118;19.962;2023-01-30T14:38:12;97419.34;;;-0.29;100.00
73171;BME280;61381;50.118;19.962;2023-01-30T14:43:50;97417.72;;;-0.13;100.00
73171;BME280;61381;50.118;19.962;2023-01-30T14:48:54;97425.53;;;-0.01;100.00
73171;BME280;61381;50.118;19.962;2023-01-30T14:53:58;97433.00;;;0.07;100.00
73171;BME280;61381;50.118;19.962;2023-01-30T14:59:01;97435.50;;;0.14;100.00
73171;BME280;61381;50.118;19.962;2023-01-30T15:04:05;97449.09;;;0.28;100.00
73171;BME280;61381;50.118;19.962;2023-01-30T15:09:07;97444.91;;;0.32;100.00
73171;BME280;61381;50.118;19.962;2023-01-30T15:14:13;97460.72;;;0.32;100.00
73171;BME280;61381;50.118;19.962;2023-01-30T15:19:35;97459.38;;;0.29;100.00
73171;BME280;61381;50.118;19.962;2023-01-30T15:30:19;97462.94;;;0.40;100.00
73171;BME280;61381;50.118;19.962;2023-01-30T15:35:27;97460.06;;;0.42;100.00
73171;BME280;61381;50.118;19.962;2023-01-30T15:40:28;97466.63;;;0.39;100.00
73171;BME280;61381;50.118;19.962;2023-01-30T15:45:37;97471.41;;;0.42;100.00
73171;BME280;61381;50.118;19.962;2023-01-30T15:50:48;97459.94;;;0.31;100.00
73171;BME280;61381;50.118;19.962;2023-01-30T15:55:51;97477.00;;;0.29;100.00
73171;BME280;61381;50.118;19.962;2023-01-30T16:00:54;97467.53;;;0.28;100.00
73171;BME280;61381;50.118;19.962;2023-01-30T16:05:58;97483.41;;;0.33;100.00
73171;BME280;61381;50.118;19.962;2023-01-30T16:11:00;97486.28;;;0.31;100.00
73171;BME280;61381;50.118;19.962;2023-01-30T16:16:03;97499.06;;;0.23;100.00
73171;BME280;61381;50.118;19.962;2023-01-30T16:21:14;97500.34;;;0.20;100.00
73171;BME280;61381;50.118;19.962;2023-01-30T16:26:17;97510.41;;;0.23;100.00
73171;BME280;61381;50.118;19.962;2023-01-30T16:31:18;97513.56;;;0.25;100.00
73171;BME280;61381;50.118;19.962;2023-01-30T16:36:32;97525.97;;;0.25;100.00
73171;BME280;61381;50.118;19.962;2023-01-30T16:41:39;97516.28;;;0.30;100.00
73171;BME280;61381;50.118;19.962;2023-01-30T16:46:45;97522.13;;;0.32;100.00
73171;BME280;61381;50.118;19.962;2023-01-30T16:51:49;97520.75;;;0.30;100.00
73171;BME280;61381;50.118;19.962;2023-01-30T16:56:57;97514.22;;;0.32;100.00
73171;BME280;61381;50.118;19.962;2023-01-30T17:02:03;97511.66;;;0.38;100.00
73171;BME280;61381;50.118;19.962;2023-01-30T17:07:18;97515.16;;;0.43;100.00
73171;BME280;61381;50.118;19.962;2023-01-30T17:12:39;97517.59;;;0.50;100.00
73171;BME280;61381;50.118;19.962;2023-01-30T17:17:43;97527.59;;;0.48;100.00
73171;BME280;61381;50.118;19.962;2023-01-30T17:22:47;97525.50;;;0.50;100.00
73171;BME280;61381;50.118;19.962;2023-01-30T17:27:49;97518.91;;;0.69;100.00
73171;BME280;61381;50.118;19.962;2023-01-30T17:32:50;97518.63;;;0.66;100.00
73171;BME280;61381;50.118;19.962;2023-01-30T17:37:53;97515.50;;;0.69;100.00
73171;BME280;61381;50.118;19.962;2023-01-30T17:42:54;97523.41;;;0.69;100.00
73171;BME280;61381;50.118;19.962;2023-01-30T17:47:55;97521.31;;;0.71;100.00
73171;BME280;61381;50.118;19.962;2023-01-30T17:52:58;97511.88;;;0.75;100.00
73171;BME280;61381;50.118;19.962;2023-01-30T17:57:59;97517.75;;;0.82;100.00
73171;BME280;61381;50.118;19.962;2023-01-30T18:03:00;97520.53;;;0.93;100.00
73171;BME280;61381;50.118;19.962;2023-01-30T18:08:02;97507.81;;;0.89;100.00
73171;BME280;61381;50.118;19.962;2023-01-30T18:13:04;97503.84;;;0.87;100.00
73171;BME280;61381;50.118;19.962;2023-01-30T18:18:09;97493.53;;;0.85;100.00
73171;BME280;61381;50.118;19.962;2023-01-30T18:23:13;97515.69;;;0.84;100.00
73171;BME280;61381;50.118;19.962;2023-01-30T18:28:14;97509.78;;;0.99;100.00
73171;BME280;61381;50.118;19.962;2023-01-30T18:33:15;97520.66;;;1.03;100.00
73171;BME280;61381;50.118;19.962;2023-01-30T18:38:17;97516.34;;;0.97;100.00
73171;BME280;61381;50.118;19.962;2023-01-30T18:43:18;97511.19;;;0.85;100.00
73171;BME280;61381;50.118;19.962;2023-01-30T18:48:19;97511.69;;;0.82;100.00
73171;BME280;61381;50.118;19.962;2023-01-30T18:53:22;97499.44;;;0.70;100.00
73171;BME280;61381;50.118;19.962;2023-01-30T18:58:23;97491.31;;;0.55;100.00
73171;BME280;61381;50.118;19.962;2023-01-30T19:03:25;97502.72;;;0.61;100.00
73171;BME280;61381;50.118;19.962;2023-01-30T19:08:28;97512.53;;;0.65;100.00
73171;BME280;61381;50.118;19.962;2023-01-30T19:13:30;97496.22;;;0.68;100.00
73171;BME280;61381;50.118;19.962;2023-01-30T19:18:31;97519.22;;;0.73;100.00
73171;BME280;61381;50.118;19.962;2023-01-30T19:23:34;97518.53;;;0.61;100.00
73171;BME280;61381;50.118;19.962;2023-01-30T19:28:35;97504.09;;;0.63;100.00
73171;BME280;61381;50.118;19.962;2023-01-30T19:33:37;97506.53;;;0.70;100.00
73171;BME280;61381;50.118;19.962;2023-01-30T19:38:39;97513.78;;;0.80;100.00
73171;BME280;61381;50.118;19.962;2023-01-30T19:43:41;97520.88;;;0.79;100.00
73171;BME280;61381;50.118;19.962;2023-01-30T19:48:43;97524.38;;;0.85;100.00
73171;BME280;61381;50.118;19.962;2023-01-30T19:53:49;97516.97;;;0.82;100.00
73171;BME280;61381;50.118;19.962;2023-01-30T19:58:52;97518.31;;;0.84;100.00
73171;BME280;61381;50.118;19.962;2023-01-30T20:03:53;97519.41;;;0.88;100.00
73171;BME280;61381;50.118;19.962;2023-01-30T20:08:57;97519.91;;;0.85;100.00
73171;BME280;61381;50.118;19.962;2023-01-30T20:13:59;97520.22;;;0.89;100.00
73171;BME280;61381;50.118;19.962;2023-01-30T20:19:02;97516.84;;;0.94;100.00
73171;BME280;61381;50.118;19.962;2023-01-30T20:24:06;97525.31;;;0.96;100.00
73171;BME280;61381;50.118;19.962;2023-01-30T20:29:08;97523.78;;;1.00;100.00
73171;BME280;61381;50.118;19.962;2023-01-30T20:34:11;97529.63;;;1.07;100.00
73171;BME280;61381;50.118;19.962;2023-01-30T20:39:14;97532.22;;;1.02;100.00
73171;BME280;61381;50.118;19.962;2023-01-30T20:44:15;97526.41;;;1.00;100.00
73171;BME280;61381;50.118;19.962;2023-01-30T20:49:18;97545.91;;;0.99;100.00
73171;BME280;61381;50.118;19.962;2023-01-30T20:54:22;97532.91;;;0.92;100.00
73171;BME280;61381;50.118;19.962;2023-01-30T20:59:23;97550.41;;;0.59;100.00
73171;BME280;61381;50.118;19.962;2023-01-30T21:04:25;97544.69;;;0.45;100.00
73171;BME280;61381;50.118;19.962;2023-01-30T21:09:27;97541.59;;;0.31;100.00
73171;BME280;61381;50.118;19.962;2023-01-30T21:14:28;97552.53;;;0.23;100.00
73171;BME280;61381;50.118;19.962;2023-01-30T21:19:29;97555.41;;;0.22;100.00
73171;BME280;61381;50.118;19.962;2023-01-30T21:24:32;97554.50;;;0.33;100.00
73171;BME280;61381;50.118;19.962;2023-01-30T21:29:33;97565.06;;;0.33;100.00
73171;BME280;61381;50.118;19.962;2023-01-30T21:34:34;97554.44;;;0.28;100.00
73171;BME280;61381;50.118;19.962;2023-01-30T21:39:37;97570.81;;;0.30;100.00
73171;BME280;61381;50.118;19.962;2023-01-30T21:44:38;97588.75;;;0.33;100.00
73171;BME280;61381;50.118;19.962;2023-01-30T21:49:39;97570.00;;;0.29;100.00
73171;BME280;61381;50.118;19.962;2023-01-30T21:54:42;97582.38;;;0.29;100.00
73171;BME280;61381;50.118;19.962;2023-01-30T21:59:43;97589.00;;;0.31;100.00
73171;BME280;61381;50.118;19.962;2023-01-30T22:04:44;97583.31;;;0.40;100.00
73171;BME280;61381;50.118;19.962;2023-01-30T22:09:46;97591.16;;;0.34;100.00
73171;BME280;61381;50.118;19.962;2023-01-30T22:14:48;97609.19;;;0.43;100.00
73171;BME280;61381;50.118;19.962;2023-01-30T22:19:49;97612.53;;;0.38;100.00
73171;BME280;61381;50.118;19.962;2023-01-30T22:24:51;97624.69;;;0.39;100.00
73171;BME280;61381;50.118;19.962;2023-01-30T22:29:52;97629.94;;;0.39;100.00
73171;BME280;61381;50.118;19.962;2023-01-30T22:34:53;97638.25;;;0.48;100.00
73171;BME280;61381;50.118;19.962;2023-01-30T22:39:56;97651.31;;;0.60;100.00
73171;BME280;61381;50.118;19.962;2023-01-30T22:44:57;97657.81;;;0.69;100.00
73171;BME280;61381;50.118;19.962;2023-01-30T22:49:58;97648.84;;;0.70;100.00
73171;BME280;61381;50.118;19.962;2023-01-30T22:55:01;97654.94;;;0.70;100.00
73171;BME280;61381;50.118;19.962;2023-01-30T23:00:03;97661.25;;;0.69;100.00
73171;BME280;61381;50.118;19.962;2023-01-30T23:05:05;97663.00;;;0.64;100.00
73171;BME280;61381;50.118;19.962;2023-01-30T23:10:09;97645.91;;;0.66;100.00
73171;BME280;61381;50.118;19.962;2023-01-30T23:15:10;97657.66;;;0.59;100.00
73171;BME280;61381;50.118;19.962;2023-01-30T23:20:12;97651.31;;;0.60;100.00
73171;BME280;61381;50.118;19.962;2023-01-30T23:25:14;97663.31;;;0.67;100.00
73171;BME280;61381;50.118;19.962;2023-01-30T23:30:16;97670.91;;;0.64;100.00
73171;BME280;61381;50.118;19.962;2023-01-30T23:35:17;97669.06;;;0.64;100.00
73171;BME280;61381;50.118;19.962;2023-01-30T23:40:20;97681.91;;;0.61;100.00
73171;BME280;61381;50.118;19.962;2023-01-30T23:45:21;97678.25;;;0.62;100.00
73171;BME280;61381;50.118;19.962;2023-01-30T23:50:22;97690.53;;;0.39;100.00
73171;BME280;61381;50.118;19.962;2023-01-30T23:55:24;97680.63;;;0.29;100.00
